sensor_id;sensor_type;location;lat;lon;timestamp;temperature;humidity
78876;DHT22;68253;52.506;5.486;2023-04-03T00:01:39;19.20;55.90
78876;DHT22;68253;52.506;5.486;2023-04-03T00:04:05;19.20;55.90
78876;DHT22;68253;52.506;5.486;2023-04-03T00:06:32;19.20;55.80
78876;DHT22;68253;52.506;5.486;2023-04-03T00:08:58;19.20;55.90
78876;DHT22;68253;52.506;5.486;2023-04-03T00:11:24;19.20;55.80
78876;DHT22;68253;52.506;5.486;2023-04-03T00:13:51;19.20;55.80
78876;DHT22;68253;52.506;5.486;2023-04-03T00:16:17;19.10;55.80
78876;DHT22;68253;52.506;5.486;2023-04-03T00:18:43;19.10;55.80
78876;DHT22;68253;52.506;5.486;2023-04-03T00:21:12;19.10;55.80
78876;DHT22;68253;52.506;5.486;2023-04-03T00:23:38;19.10;55.80
78876;DHT22;68253;52.506;5.486;2023-04-03T00:26:05;19.10;55.80
78876;DHT22;68253;52.506;5.486;2023-04-03T00:28:31;19.00;55.80
78876;DHT22;68253;52.506;5.486;2023-04-03T00:30:58;19.00;55.80
78876;DHT22;68253;52.506;5.486;2023-04-03T00:33:25;19.00;55.70
78876;DHT22;68253;52.506;5.486;2023-04-03T00:35:51;19.00;55.80
78876;DHT22;68253;52.506;5.486;2023-04-03T00:38:17;19.00;55.70
78876;DHT22;68253;52.506;5.486;2023-04-03T00:40:46;19.00;55.80
78876;DHT22;68253;52.506;5.486;2023-04-03T00:43:14;19.00;55.80
78876;DHT22;68253;52.506;5.486;2023-04-03T00:45:43;18.90;55.80
78876;DHT22;68253;52.506;5.486;2023-04-03T00:48:18;18.80;55.90
78876;DHT22;68253;52.506;5.486;2023-04-03T00:50:46;18.90;55.90
78876;DHT22;68253;52.506;5.486;2023-04-03T00:53:17;18.80;55.80
78876;DHT22;68253;52.506;5.486;2023-04-03T00:55:46;18.80;55.80
78876;DHT22;68253;52.506;5.486;2023-04-03T00:58:16;18.80;55.80
78876;DHT22;68253;52.506;5.486;2023-04-03T01:00:47;18.80;55.80
78876;DHT22;68253;52.506;5.486;2023-04-03T01:03:15;18.80;55.80
78876;DHT22;68253;52.506;5.486;2023-04-03T01:05:41;18.80;55.80
78876;DHT22;68253;52.506;5.486;2023-04-03T01:08:07;18.80;55.80
78876;DHT22;68253;52.506;5.486;2023-04-03T01:10:33;18.80;55.80
78876;DHT22;68253;52.506;5.486;2023-04-03T01:13:00;18.80;55.80
78876;DHT22;68253;52.506;5.486;2023-04-03T01:15:28;18.80;55.80
78876;DHT22;68253;52.506;5.486;2023-04-03T01:18:00;18.80;55.80
78876;DHT22;68253;52.506;5.486;2023-04-03T01:25:37;18.70;55.80
78876;DHT22;68253;52.506;5.486;2023-04-03T01:28:05;18.70;55.80
78876;DHT22;68253;52.506;5.486;2023-04-03T01:30:37;18.70;55.80
78876;DHT22;68253;52.506;5.486;2023-04-03T01:33:04;18.70;55.80
78876;DHT22;68253;52.506;5.486;2023-04-03T01:35:31;18.70;55.80
78876;DHT22;68253;52.506;5.486;2023-04-03T01:37:57;18.70;55.80
78876;DHT22;68253;52.506;5.486;2023-04-03T01:40:23;18.60;55.80
78876;DHT22;68253;52.506;5.486;2023-04-03T01:42:50;18.60;55.80
78876;DHT22;68253;52.506;5.486;2023-04-03T01:45:16;18.60;55.80
78876;DHT22;68253;52.506;5.486;2023-04-03T01:47:42;18.60;55.70
78876;DHT22;68253;52.506;5.486;2023-04-03T01:50:09;18.60;55.70
78876;DHT22;68253;52.506;5.486;2023-04-03T01:52:35;18.60;55.80
78876;DHT22;68253;52.506;5.486;2023-04-03T01:55:01;18.60;55.70
78876;DHT22;68253;52.506;5.486;2023-04-03T01:57:28;18.60;55.70
78876;DHT22;68253;52.506;5.486;2023-04-03T01:59:54;18.60;55.70
78876;DHT22;68253;52.506;5.486;2023-04-03T02:02:20;18.60;55.70
78876;DHT22;68253;52.506;5.486;2023-04-03T02:04:46;18.60;55.70
78876;DHT22;68253;52.506;5.486;2023-04-03T02:07:12;18.60;55.70
78876;DHT22;68253;52.506;5.486;2023-04-03T02:09:38;18.60;55.70
78876;DHT22;68253;52.506;5.486;2023-04-03T02:12:05;18.50;55.70
78876;DHT22;68253;52.506;5.486;2023-04-03T02:14:32;18.50;55.70
78876;DHT22;68253;52.506;5.486;2023-04-03T02:17:01;18.50;55.70
78876;DHT22;68253;52.506;5.486;2023-04-03T02:19:31;18.50;55.70
78876;DHT22;68253;52.506;5.486;2023-04-03T02:21:57;18.50;55.70
78876;DHT22;68253;52.506;5.486;2023-04-03T02:24:23;18.50;55.70
78876;DHT22;68253;52.506;5.486;2023-04-03T02:26:49;18.50;55.70
78876;DHT22;68253;52.506;5.486;2023-04-03T02:29:16;18.50;55.70
78876;DHT22;68253;52.506;5.486;2023-04-03T02:31:42;18.50;55.70
78876;DHT22;68253;52.506;5.486;2023-04-03T02:34:08;18.50;55.70
78876;DHT22;68253;52.506;5.486;2023-04-03T02:36:35;18.40;55.70
78876;DHT22;68253;52.506;5.486;2023-04-03T02:39:05;18.40;55.70
78876;DHT22;68253;52.506;5.486;2023-04-03T02:41:31;18.40;55.70
78876;DHT22;68253;52.506;5.486;2023-04-03T02:44:02;18.40;55.70
78876;DHT22;68253;52.506;5.486;2023-04-03T02:46:29;18.40;55.70
78876;DHT22;68253;52.506;5.486;2023-04-03T02:48:56;18.40;55.70
78876;DHT22;68253;52.506;5.486;2023-04-03T02:51:22;18.40;55.70
78876;DHT22;68253;52.506;5.486;2023-04-03T02:53:49;18.40;55.70
78876;DHT22;68253;52.506;5.486;2023-04-03T02:56:20;18.40;55.70
78876;DHT22;68253;52.506;5.486;2023-04-03T02:58:46;18.30;55.70
78876;DHT22;68253;52.506;5.486;2023-04-03T03:01:12;18.30;55.70
78876;DHT22;68253;52.506;5.486;2023-04-03T03:03:39;18.30;55.60
78876;DHT22;68253;52.506;5.486;2023-04-03T03:06:14;18.30;55.70
78876;DHT22;68253;52.506;5.486;2023-04-03T03:08:41;18.30;55.70
78876;DHT22;68253;52.506;5.486;2023-04-03T03:11:07;18.30;55.70
78876;DHT22;68253;52.506;5.486;2023-04-03T03:13:34;18.20;55.70
78876;DHT22;68253;52.506;5.486;2023-04-03T03:16:00;18.20;55.70
78876;DHT22;68253;52.506;5.486;2023-04-03T03:18:27;18.20;55.70
78876;DHT22;68253;52.506;5.486;2023-04-03T03:20:54;18.20;55.70
78876;DHT22;68253;52.506;5.486;2023-04-03T03:23:22;18.20;55.70
78876;DHT22;68253;52.506;5.486;2023-04-03T03:25:54;18.20;55.70
78876;DHT22;68253;52.506;5.486;2023-04-03T03:28:20;18.20;55.70
78876;DHT22;68253;52.506;5.486;2023-04-03T03:30:46;18.20;55.60
78876;DHT22;68253;52.506;5.486;2023-04-03T03:33:14;18.20;55.70
78876;DHT22;68253;52.506;5.486;2023-04-03T03:35:40;18.20;55.70
78876;DHT22;68253;52.506;5.486;2023-04-03T03:38:07;18.20;55.60
78876;DHT22;68253;52.506;5.486;2023-04-03T03:40:33;18.20;55.60
78876;DHT22;68253;52.506;5.486;2023-04-03T03:43:00;18.20;55.60
78876;DHT22;68253;52.506;5.486;2023-04-03T03:45:26;18.20;55.70
78876;DHT22;68253;52.506;5.486;2023-04-03T03:47:52;18.20;55.60
78876;DHT22;68253;52.506;5.486;2023-04-03T03:50:19;18.20;55.60
78876;DHT22;68253;52.506;5.486;2023-04-03T03:52:45;18.10;55.60
78876;DHT22;68253;52.506;5.486;2023-04-03T03:55:12;18.10;55.60
78876;DHT22;68253;52.506;5.486;2023-04-03T03:57:38;18.10;55.60
78876;DHT22;68253;52.506;5.486;2023-04-03T04:00:06;18.10;55.60
78876;DHT22;68253;52.506;5.486;2023-04-03T04:02:41;18.10;55.60
78876;DHT22;68253;52.506;5.486;2023-04-03T04:05:10;18.10;55.60
78876;DHT22;68253;52.506;5.486;2023-04-03T04:07:36;18.10;55.60
78876;DHT22;68253;52.506;5.486;2023-04-03T04:10:04;18.10;55.60
78876;DHT22;68253;52.506;5.486;2023-04-03T04:12:31;18.10;55.60
78876;DHT22;68253;52.506;5.486;2023-04-03T04:14:57;18.00;55.60
78876;DHT22;68253;52.506;5.486;2023-04-03T04:17:24;18.10;55.60
78876;DHT22;68253;52.506;5.486;2023-04-03T04:19:50;18.10;55.60
78876;DHT22;68253;52.506;5.486;2023-04-03T04:22:17;18.00;55.60
78876;DHT22;68253;52.506;5.486;2023-04-03T04:24:43;18.00;55.60
78876;DHT22;68253;52.506;5.486;2023-04-03T04:27:09;18.00;55.60
78876;DHT22;68253;52.506;5.486;2023-04-03T04:29:36;18.00;55.60
78876;DHT22;68253;52.506;5.486;2023-04-03T04:32:05;18.00;55.60
78876;DHT22;68253;52.506;5.486;2023-04-03T04:34:31;18.00;55.60
78876;DHT22;68253;52.506;5.486;2023-04-03T04:36:58;18.00;55.50
78876;DHT22;68253;52.506;5.486;2023-04-03T04:39:26;18.00;55.60
78876;DHT22;68253;52.506;5.486;2023-04-03T04:41:54;18.00;55.60
78876;DHT22;68253;52.506;5.486;2023-04-03T04:44:21;18.00;55.60
78876;DHT22;68253;52.506;5.486;2023-04-03T04:46:47;18.00;55.50
78876;DHT22;68253;52.506;5.486;2023-04-03T04:49:14;18.00;55.50
78876;DHT22;68253;52.506;5.486;2023-04-03T04:51:40;18.00;55.60
78876;DHT22;68253;52.506;5.486;2023-04-03T04:54:06;18.00;55.50
78876;DHT22;68253;52.506;5.486;2023-04-03T04:56:32;18.00;55.50
78876;DHT22;68253;52.506;5.486;2023-04-03T04:58:59;18.00;55.50
78876;DHT22;68253;52.506;5.486;2023-04-03T05:01:26;18.00;55.50
78876;DHT22;68253;52.506;5.486;2023-04-03T05:04:01;17.90;55.50
78876;DHT22;68253;52.506;5.486;2023-04-03T05:06:27;17.90;55.50
78876;DHT22;68253;52.506;5.486;2023-04-03T05:08:56;17.80;55.60
78876;DHT22;68253;52.506;5.486;2023-04-03T05:11:23;17.80;55.60
78876;DHT22;68253;52.506;5.486;2023-04-03T05:13:51;17.80;55.60
78876;DHT22;68253;52.506;5.486;2023-04-03T05:16:18;17.80;55.60
78876;DHT22;68253;52.506;5.486;2023-04-03T05:18:44;17.80;55.50
78876;DHT22;68253;52.506;5.486;2023-04-03T05:21:16;17.80;55.50
78876;DHT22;68253;52.506;5.486;2023-04-03T05:23:47;17.80;55.50
78876;DHT22;68253;52.506;5.486;2023-04-03T05:26:14;17.80;55.50
78876;DHT22;68253;52.506;5.486;2023-04-03T05:28:40;17.80;55.50
78876;DHT22;68253;52.506;5.486;2023-04-03T05:31:07;17.70;55.70
78876;DHT22;68253;52.506;5.486;2023-04-03T05:33:36;17.80;55.60
78876;DHT22;68253;52.506;5.486;2023-04-03T05:36:05;17.80;55.50
78876;DHT22;68253;52.506;5.486;2023-04-03T05:38:33;17.80;55.50
78876;DHT22;68253;52.506;5.486;2023-04-03T05:40:59;17.80;55.50
78876;DHT22;68253;52.506;5.486;2023-04-03T05:43:26;17.70;55.70
78876;DHT22;68253;52.506;5.486;2023-04-03T05:45:52;17.70;55.60
78876;DHT22;68253;52.506;5.486;2023-04-03T05:48:20;17.70;55.60
78876;DHT22;68253;52.506;5.486;2023-04-03T05:50:47;17.80;55.60
78876;DHT22;68253;52.506;5.486;2023-04-03T05:53:22;17.80;55.50
78876;DHT22;68253;52.506;5.486;2023-04-03T05:55:50;17.80;55.50
78876;DHT22;68253;52.506;5.486;2023-04-03T05:58:16;17.80;55.50
78876;DHT22;68253;52.506;5.486;2023-04-03T06:00:45;17.80;55.50
78876;DHT22;68253;52.506;5.486;2023-04-03T06:03:12;17.80;55.50
78876;DHT22;68253;52.506;5.486;2023-04-03T06:05:38;17.80;55.50
78876;DHT22;68253;52.506;5.486;2023-04-03T06:08:04;17.80;55.50
78876;DHT22;68253;52.506;5.486;2023-04-03T06:10:31;17.80;55.50
78876;DHT22;68253;52.506;5.486;2023-04-03T06:12:57;17.80;55.50
78876;DHT22;68253;52.506;5.486;2023-04-03T06:15:23;17.80;55.50
78876;DHT22;68253;52.506;5.486;2023-04-03T06:17:49;17.70;55.50
78876;DHT22;68253;52.506;5.486;2023-04-03T06:20:16;17.70;55.50
78876;DHT22;68253;52.506;5.486;2023-04-03T06:22:42;17.80;55.50
78876;DHT22;68253;52.506;5.486;2023-04-03T06:25:10;17.70;55.50
78876;DHT22;68253;52.506;5.486;2023-04-03T06:27:37;17.70;55.50
78876;DHT22;68253;52.506;5.486;2023-04-03T06:30:04;17.70;55.50
78876;DHT22;68253;52.506;5.486;2023-04-03T06:32:31;17.70;55.50
78876;DHT22;68253;52.506;5.486;2023-04-03T06:34:57;17.70;55.50
78876;DHT22;68253;52.506;5.486;2023-04-03T06:37:24;17.70;55.50
78876;DHT22;68253;52.506;5.486;2023-04-03T06:39:52;17.70;55.50
78876;DHT22;68253;52.506;5.486;2023-04-03T06:42:18;17.70;55.50
78876;DHT22;68253;52.506;5.486;2023-04-03T06:44:52;17.60;55.50
78876;DHT22;68253;52.506;5.486;2023-04-03T06:47:18;17.70;55.50
78876;DHT22;68253;52.506;5.486;2023-04-03T06:49:44;17.60;55.50
78876;DHT22;68253;52.506;5.486;2023-04-03T06:52:11;17.60;55.40
78876;DHT22;68253;52.506;5.486;2023-04-03T06:54:38;17.60;55.40
78876;DHT22;68253;52.506;5.486;2023-04-03T06:57:04;17.70;55.50
78876;DHT22;68253;52.506;5.486;2023-04-03T06:59:31;17.60;55.40
78876;DHT22;68253;52.506;5.486;2023-04-03T07:01:57;17.70;55.40
78876;DHT22;68253;52.506;5.486;2023-04-03T07:04:25;17.60;55.40
78876;DHT22;68253;52.506;5.486;2023-04-03T07:06:52;17.60;55.40
78876;DHT22;68253;52.506;5.486;2023-04-03T07:09:18;17.60;55.40
78876;DHT22;68253;52.506;5.486;2023-04-03T07:11:44;17.60;55.40
78876;DHT22;68253;52.506;5.486;2023-04-03T07:14:11;17.60;55.40
78876;DHT22;68253;52.506;5.486;2023-04-03T07:16:37;17.60;55.40
78876;DHT22;68253;52.506;5.486;2023-04-03T07:19:03;17.70;55.40
78876;DHT22;68253;52.506;5.486;2023-04-03T07:21:29;17.70;55.40
78876;DHT22;68253;52.506;5.486;2023-04-03T07:23:56;17.70;55.30
78876;DHT22;68253;52.506;5.486;2023-04-03T07:26:23;17.60;55.40
78876;DHT22;68253;52.506;5.486;2023-04-03T07:28:49;17.60;55.40
78876;DHT22;68253;52.506;5.486;2023-04-03T07:31:16;17.70;55.30
78876;DHT22;68253;52.506;5.486;2023-04-03T07:33:43;17.70;55.30
78876;DHT22;68253;52.506;5.486;2023-04-03T07:36:17;17.70;55.30
78876;DHT22;68253;52.506;5.486;2023-04-03T07:38:43;17.70;55.30
78876;DHT22;68253;52.506;5.486;2023-04-03T07:41:13;17.60;55.30
78876;DHT22;68253;52.506;5.486;2023-04-03T07:43:41;17.70;55.30
78876;DHT22;68253;52.506;5.486;2023-04-03T07:46:08;17.70;55.30
78876;DHT22;68253;52.506;5.486;2023-04-03T07:48:35;17.70;55.30
78876;DHT22;68253;52.506;5.486;2023-04-03T07:51:02;17.70;55.30
78876;DHT22;68253;52.506;5.486;2023-04-03T07:53:30;17.70;55.30
78876;DHT22;68253;52.506;5.486;2023-04-03T07:55:57;17.70;55.30
78876;DHT22;68253;52.506;5.486;2023-04-03T07:58:24;17.70;55.30
78876;DHT22;68253;52.506;5.486;2023-04-03T08:00:50;17.70;55.30
78876;DHT22;68253;52.506;5.486;2023-04-03T08:03:16;17.80;55.30
78876;DHT22;68253;52.506;5.486;2023-04-03T08:05:45;17.80;55.30
78876;DHT22;68253;52.506;5.486;2023-04-03T08:08:13;17.80;55.20
78876;DHT22;68253;52.506;5.486;2023-04-03T08:10:40;17.80;55.20
78876;DHT22;68253;52.506;5.486;2023-04-03T08:13:07;17.80;55.20
78876;DHT22;68253;52.506;5.486;2023-04-03T08:15:33;17.80;55.20
78876;DHT22;68253;52.506;5.486;2023-04-03T08:18:00;17.90;55.10
78876;DHT22;68253;52.506;5.486;2023-04-03T08:20:26;18.00;55.10
78876;DHT22;68253;52.506;5.486;2023-04-03T08:22:53;18.00;55.00
78876;DHT22;68253;52.506;5.486;2023-04-03T08:25:19;18.00;55.00
78876;DHT22;68253;52.506;5.486;2023-04-03T08:27:46;18.10;55.00
78876;DHT22;68253;52.506;5.486;2023-04-03T08:30:12;18.20;55.00
78876;DHT22;68253;52.506;5.486;2023-04-03T08:32:39;18.20;55.00
78876;DHT22;68253;52.506;5.486;2023-04-03T08:35:08;18.30;54.90
78876;DHT22;68253;52.506;5.486;2023-04-03T08:37:37;18.30;54.90
78876;DHT22;68253;52.506;5.486;2023-04-03T08:40:06;18.40;54.90
78876;DHT22;68253;52.506;5.486;2023-04-03T08:45:48;18.40;54.80
78876;DHT22;68253;52.506;5.486;2023-04-03T08:48:33;18.50;54.80
78876;DHT22;68253;52.506;5.486;2023-04-03T08:51:04;18.50;54.80
78876;DHT22;68253;52.506;5.486;2023-04-03T08:53:34;18.50;54.80
78876;DHT22;68253;52.506;5.486;2023-04-03T08:56:10;18.50;54.80
78876;DHT22;68253;52.506;5.486;2023-04-03T08:58:59;18.60;54.80
78876;DHT22;68253;52.506;5.486;2023-04-03T09:01:38;18.60;54.80
78876;DHT22;68253;52.506;5.486;2023-04-03T09:04:13;18.60;54.80
78876;DHT22;68253;52.506;5.486;2023-04-03T09:06:46;18.60;54.80
78876;DHT22;68253;52.506;5.486;2023-04-03T09:09:39;18.70;54.80
78876;DHT22;68253;52.506;5.486;2023-04-03T09:12:19;18.70;54.80
78876;DHT22;68253;52.506;5.486;2023-04-03T09:22:46;18.80;54.80
78876;DHT22;68253;52.506;5.486;2023-04-03T09:25:18;18.80;54.80
78876;DHT22;68253;52.506;5.486;2023-04-03T09:27:46;18.90;54.90
78876;DHT22;68253;52.506;5.486;2023-04-03T09:30:17;18.90;54.80
78876;DHT22;68253;52.506;5.486;2023-04-03T09:32:46;19.00;54.90
78876;DHT22;68253;52.506;5.486;2023-04-03T09:38:31;19.10;54.90
78876;DHT22;68253;52.506;5.486;2023-04-03T09:40:48;19.10;54.90
78876;DHT22;68253;52.506;5.486;2023-04-03T09:43:31;19.10;55.00
78876;DHT22;68253;52.506;5.486;2023-04-03T09:46:29;19.20;54.90
78876;DHT22;68253;52.506;5.486;2023-04-03T09:48:58;19.30;54.90
78876;DHT22;68253;52.506;5.486;2023-04-03T09:51:26;19.30;55.00
78876;DHT22;68253;52.506;5.486;2023-04-03T09:53:55;19.30;55.00
78876;DHT22;68253;52.506;5.486;2023-04-03T09:56:29;19.40;55.00
78876;DHT22;68253;52.506;5.486;2023-04-03T10:01:34;19.40;54.90
78876;DHT22;68253;52.506;5.486;2023-04-03T10:04:18;19.50;54.90
78876;DHT22;68253;52.506;5.486;2023-04-03T10:09:33;19.50;55.00
78876;DHT22;68253;52.506;5.486;2023-04-03T10:12:05;19.60;55.00
78876;DHT22;68253;52.506;5.486;2023-04-03T10:14:36;19.50;55.10
78876;DHT22;68253;52.506;5.486;2023-04-03T10:17:17;19.70;55.20
78876;DHT22;68253;52.506;5.486;2023-04-03T10:22:46;19.70;55.30
78876;DHT22;68253;52.506;5.486;2023-04-03T10:34:01;19.80;55.20
78876;DHT22;68253;52.506;5.486;2023-04-03T10:36:44;19.90;55.20
78876;DHT22;68253;52.506;5.486;2023-04-03T10:44:41;19.90;55.10
78876;DHT22;68253;52.506;5.486;2023-04-03T10:49:56;19.90;55.10
78876;DHT22;68253;52.506;5.486;2023-04-03T10:58:48;20.00;55.00
78876;DHT22;68253;52.506;5.486;2023-04-03T11:01:20;20.00;55.00
78876;DHT22;68253;52.506;5.486;2023-04-03T11:03:51;20.00;55.00
78876;DHT22;68253;52.506;5.486;2023-04-03T11:06:21;20.10;55.00
78876;DHT22;68253;52.506;5.486;2023-04-03T11:11:35;20.10;54.90
78876;DHT22;68253;52.506;5.486;2023-04-03T11:14:18;20.10;54.90
78876;DHT22;68253;52.506;5.486;2023-04-03T11:16:50;20.20;54.80
78876;DHT22;68253;52.506;5.486;2023-04-03T11:19:33;20.20;54.80
78876;DHT22;68253;52.506;5.486;2023-04-03T11:24:32;20.10;54.10
78876;DHT22;68253;52.506;5.486;2023-04-03T11:27:01;20.10;53.80
78876;DHT22;68253;52.506;5.486;2023-04-03T11:29:36;20.10;53.40
78876;DHT22;68253;52.506;5.486;2023-04-03T11:37:17;20.00;52.50
78876;DHT22;68253;52.506;5.486;2023-04-03T11:40:00;20.00;52.00
78876;DHT22;68253;52.506;5.486;2023-04-03T11:42:34;20.00;51.50
78876;DHT22;68253;52.506;5.486;2023-04-03T11:47:49;20.00;50.90
78876;DHT22;68253;52.506;5.486;2023-04-03T11:58:02;20.00;50.40
78876;DHT22;68253;52.506;5.486;2023-04-03T12:08:52;20.00;49.50
78876;DHT22;68253;52.506;5.486;2023-04-03T12:11:31;20.00;49.50
78876;DHT22;68253;52.506;5.486;2023-04-03T12:24:33;20.00;49.50
78876;DHT22;68253;52.506;5.486;2023-04-03T12:44:04;20.00;48.70
78876;DHT22;68253;52.506;5.486;2023-04-03T12:47:00;20.00;48.70
78876;DHT22;68253;52.506;5.486;2023-04-03T12:49:37;20.00;48.60
78876;DHT22;68253;52.506;5.486;2023-04-03T12:52:32;19.90;48.60
78876;DHT22;68253;52.506;5.486;2023-04-03T12:55:00;20.00;48.50
78876;DHT22;68253;52.506;5.486;2023-04-03T12:57:30;19.90;48.50
78876;DHT22;68253;52.506;5.486;2023-04-03T12:59:57;20.00;48.30
78876;DHT22;68253;52.506;5.486;2023-04-03T13:02:28;20.00;48.20
78876;DHT22;68253;52.506;5.486;2023-04-03T13:04:58;20.00;48.20
78876;DHT22;68253;52.506;5.486;2023-04-03T13:07:27;20.00;48.10
78876;DHT22;68253;52.506;5.486;2023-04-03T13:12:33;20.00;48.00
78876;DHT22;68253;52.506;5.486;2023-04-03T13:15:11;20.00;48.10
78876;DHT22;68253;52.506;5.486;2023-04-03T13:17:42;20.00;48.00
78876;DHT22;68253;52.506;5.486;2023-04-03T13:23:00;20.10;48.00
78876;DHT22;68253;52.506;5.486;2023-04-03T13:25:30;20.10;48.00
78876;DHT22;68253;52.506;5.486;2023-04-03T13:27:58;20.10;48.00
78876;DHT22;68253;52.506;5.486;2023-04-03T13:30:34;20.10;47.90
78876;DHT22;68253;52.506;5.486;2023-04-03T13:33:05;20.10;47.80
78876;DHT22;68253;52.506;5.486;2023-04-03T13:35:39;20.10;47.80
78876;DHT22;68253;52.506;5.486;2023-04-03T13:38:22;20.10;47.80
78876;DHT22;68253;52.506;5.486;2023-04-03T13:40:50;20.10;47.80
78876;DHT22;68253;52.506;5.486;2023-04-03T13:43:20;20.10;47.80
78876;DHT22;68253;52.506;5.486;2023-04-03T13:48:42;20.10;47.60
78876;DHT22;68253;52.506;5.486;2023-04-03T13:53:58;20.10;47.70
78876;DHT22;68253;52.506;5.486;2023-04-03T13:56:33;20.10;47.70
78876;DHT22;68253;52.506;5.486;2023-04-03T13:59:04;20.10;47.70
78876;DHT22;68253;52.506;5.486;2023-04-03T14:01:50;20.00;47.80
78876;DHT22;68253;52.506;5.486;2023-04-03T14:04:20;20.00;47.80
78876;DHT22;68253;52.506;5.486;2023-04-03T14:06:47;20.00;47.80
78876;DHT22;68253;52.506;5.486;2023-04-03T14:09:15;20.10;47.70
78876;DHT22;68253;52.506;5.486;2023-04-03T14:11:43;20.10;47.50
78876;DHT22;68253;52.506;5.486;2023-04-03T14:14:17;20.10;47.50
78876;DHT22;68253;52.506;5.486;2023-04-03T14:16:47;20.10;47.40
78876;DHT22;68253;52.506;5.486;2023-04-03T14:19:27;20.20;47.40
78876;DHT22;68253;52.506;5.486;2023-04-03T14:21:55;20.20;47.30
78876;DHT22;68253;52.506;5.486;2023-04-03T14:26:34;20.50;47.00
78876;DHT22;68253;52.506;5.486;2023-04-03T14:29:01;20.60;46.80
78876;DHT22;68253;52.506;5.486;2023-04-03T14:31:27;20.80;46.50
78876;DHT22;68253;52.506;5.486;2023-04-03T14:33:53;22.50;45.80
78876;DHT22;68253;52.506;5.486;2023-04-03T14:36:22;24.60;44.10
78876;DHT22;68253;52.506;5.486;2023-04-03T14:38:50;25.40;43.30
78876;DHT22;68253;52.506;5.486;2023-04-03T14:41:19;25.60;43.00
78876;DHT22;68253;52.506;5.486;2023-04-03T14:43:46;25.60;42.70
78876;DHT22;68253;52.506;5.486;2023-04-03T14:48:59;25.40;42.60
78876;DHT22;68253;52.506;5.486;2023-04-03T14:51:25;25.30;42.70
78876;DHT22;68253;52.506;5.486;2023-04-03T14:53:52;25.10;42.70
78876;DHT22;68253;52.506;5.486;2023-04-03T14:56:23;25.00;42.60
78876;DHT22;68253;52.506;5.486;2023-04-03T14:58:55;24.90;42.60
78876;DHT22;68253;52.506;5.486;2023-04-03T15:01:22;24.80;42.60
78876;DHT22;68253;52.506;5.486;2023-04-03T15:03:48;24.70;42.60
78876;DHT22;68253;52.506;5.486;2023-04-03T15:06:14;24.60;42.60
78876;DHT22;68253;52.506;5.486;2023-04-03T15:08:42;24.50;42.60
78876;DHT22;68253;52.506;5.486;2023-04-03T15:11:10;24.40;42.60
78876;DHT22;68253;52.506;5.486;2023-04-03T15:13:37;24.40;42.60
78876;DHT22;68253;52.506;5.486;2023-04-03T15:16:05;24.30;42.60
78876;DHT22;68253;52.506;5.486;2023-04-03T15:18:37;24.20;42.60
78876;DHT22;68253;52.506;5.486;2023-04-03T15:21:04;24.20;42.50
78876;DHT22;68253;52.506;5.486;2023-04-03T15:23:31;24.10;42.50
78876;DHT22;68253;52.506;5.486;2023-04-03T15:25:57;24.00;42.60
78876;DHT22;68253;52.506;5.486;2023-04-03T15:28:32;24.00;42.50
78876;DHT22;68253;52.506;5.486;2023-04-03T15:31:00;24.00;42.50
78876;DHT22;68253;52.506;5.486;2023-04-03T15:33:26;23.90;42.50
78876;DHT22;68253;52.506;5.486;2023-04-03T15:35:53;23.90;42.40
78876;DHT22;68253;52.506;5.486;2023-04-03T15:38:19;23.80;42.30
78876;DHT22;68253;52.506;5.486;2023-04-03T15:40:46;23.80;42.30
78876;DHT22;68253;52.506;5.486;2023-04-03T15:43:13;23.70;42.30
78876;DHT22;68253;52.506;5.486;2023-04-03T15:45:40;23.70;42.20
78876;DHT22;68253;52.506;5.486;2023-04-03T15:48:07;23.60;42.10
78876;DHT22;68253;52.506;5.486;2023-04-03T15:50:34;23.60;42.20
78876;DHT22;68253;52.506;5.486;2023-04-03T15:53:01;23.60;42.20
78876;DHT22;68253;52.506;5.486;2023-04-03T15:55:30;23.60;42.20
78876;DHT22;68253;52.506;5.486;2023-04-03T15:57:57;23.50;42.20
78876;DHT22;68253;52.506;5.486;2023-04-03T16:00:24;23.50;42.20
78876;DHT22;68253;52.506;5.486;2023-04-03T16:02:53;23.40;42.20
78876;DHT22;68253;52.506;5.486;2023-04-03T16:05:21;23.40;42.20
78876;DHT22;68253;52.506;5.486;2023-04-03T16:07:48;23.40;42.20
78876;DHT22;68253;52.506;5.486;2023-04-03T16:10:16;23.30;42.10
78876;DHT22;68253;52.506;5.486;2023-04-03T16:12:42;23.30;42.00
78876;DHT22;68253;52.506;5.486;2023-04-03T16:15:09;23.20;42.00
78876;DHT22;68253;52.506;5.486;2023-04-03T16:17:37;23.20;42.00
78876;DHT22;68253;52.506;5.486;2023-04-03T16:20:05;23.10;42.10
78876;DHT22;68253;52.506;5.486;2023-04-03T16:22:32;23.10;42.20
78876;DHT22;68253;52.506;5.486;2023-04-03T16:24:59;23.10;42.40
78876;DHT22;68253;52.506;5.486;2023-04-03T16:27:25;23.10;42.50
78876;DHT22;68253;52.506;5.486;2023-04-03T16:29:54;23.10;42.50
78876;DHT22;68253;52.506;5.486;2023-04-03T16:32:21;23.20;42.50
78876;DHT22;68253;52.506;5.486;2023-04-03T16:34:48;23.20;42.50
78876;DHT22;68253;52.506;5.486;2023-04-03T16:37:15;23.20;42.50
78876;DHT22;68253;52.506;5.486;2023-04-03T16:39:41;23.20;42.40
78876;DHT22;68253;52.506;5.486;2023-04-03T16:42:07;23.20;42.50
78876;DHT22;68253;52.506;5.486;2023-04-03T16:44:36;23.20;42.40
78876;DHT22;68253;52.506;5.486;2023-04-03T16:47:03;23.20;42.50
78876;DHT22;68253;52.506;5.486;2023-04-03T16:49:29;23.20;42.60
78876;DHT22;68253;52.506;5.486;2023-04-03T16:51:58;23.20;42.70
78876;DHT22;68253;52.506;5.486;2023-04-03T16:54:24;23.20;42.80
78876;DHT22;68253;52.506;5.486;2023-04-03T16:56:50;23.30;42.70
78876;DHT22;68253;52.506;5.486;2023-04-03T16:59:17;23.30;42.60
78876;DHT22;68253;52.506;5.486;2023-04-03T17:01:43;23.30;42.60
78876;DHT22;68253;52.506;5.486;2023-04-03T17:04:09;23.20;42.70
78876;DHT22;68253;52.506;5.486;2023-04-03T17:06:36;23.30;42.80
78876;DHT22;68253;52.506;5.486;2023-04-03T17:09:02;23.20;42.90
78876;DHT22;68253;52.506;5.486;2023-04-03T17:11:29;23.20;42.90
78876;DHT22;68253;52.506;5.486;2023-04-03T17:13:55;23.20;42.90
78876;DHT22;68253;52.506;5.486;2023-04-03T17:16:22;23.20;42.90
78876;DHT22;68253;52.506;5.486;2023-04-03T17:18:49;23.20;43.00
78876;DHT22;68253;52.506;5.486;2023-04-03T17:21:16;23.20;43.00
78876;DHT22;68253;52.506;5.486;2023-04-03T17:23:44;23.20;43.00
78876;DHT22;68253;52.506;5.486;2023-04-03T17:26:12;23.20;43.00
78876;DHT22;68253;52.506;5.486;2023-04-03T17:28:38;23.20;43.20
78876;DHT22;68253;52.506;5.486;2023-04-03T17:31:06;23.20;43.20
78876;DHT22;68253;52.506;5.486;2023-04-03T17:33:32;23.20;43.20
78876;DHT22;68253;52.506;5.486;2023-04-03T17:36:01;23.20;43.30
78876;DHT22;68253;52.506;5.486;2023-04-03T17:38:32;23.20;43.40
78876;DHT22;68253;52.506;5.486;2023-04-03T17:41:00;23.20;43.40
78876;DHT22;68253;52.506;5.486;2023-04-03T17:43:27;23.20;43.50